Time;durP1;ratioP1;P1;durP2;ratioP2;P2;SDS_P1;SDS_P2;PMS_P1;PMS_P2;Temp;Humidity;BMP_temperature;BMP_pressure;BME280_temperature;BME280_humidity;BME280_pressure;Samples;Min_cycle;Max_cycle;Signal;HPM_P1;HPM_P2
2021/12/10 00:02:21;;;;;;;60.75;30.10;;;;;;;;;;5033539;28;20032;-72
2021/12/10 00:04:47;;;;;;;55.38;28.20;;;;;;;;;;4936785;29;20035;-73
2021/12/10 00:07:16;;;;;;;63.90;29.95;;;;;;;;;;5017102;28;20031;-72
2021/12/10 00:09:46;;;;;;;53.35;28.10;;;;;;;;;;5033531;28;20546;-72
2021/12/10 00:12:16;;;;;;;51.10;22.63;;;;;;;;;;5033401;28;20024;-72
2021/12/10 00:14:43;;;;;;;56.17;28.85;;;;;;;;;;5032950;28;20583;-73
2021/12/10 00:17:10;;;;;;;53.20;27.20;;;;;;;;;;5033447;28;20030;-72
2021/12/10 00:19:48;;;;;;;52.58;27.35;;;;;;;;;;5033292;28;20025;-72
2021/12/10 00:22:22;;;;;;;52.65;28.00;;;;;;;;;;5021239;28;20034;-72
2021/12/10 00:24:49;;;;;;;47.08;23.95;;;;;;;;;;5029846;28;20029;-72
2021/12/10 00:27:15;;;;;;;51.25;25.77;;;;;;;;;;5033265;28;20451;-72
2021/12/10 00:29:48;;;;;;;52.35;26.42;;;;;;;;;;5033034;28;20032;-73
2021/12/10 00:32:29;;;;;;;49.58;26.17;;;;;;;;;;5032978;28;20025;-73
2021/12/10 00:34:55;;;;;;;51.78;25.52;;;;;;;;;;5032687;28;20147;-71
2021/12/10 00:37:23;;;;;;;46.88;24.98;;;;;;;;;;5033021;28;20104;-72
2021/12/10 00:39:52;;;;;;;49.72;26.70;;;;;;;;;;5024716;28;20109;-72
2021/12/10 00:42:20;;;;;;;47.78;25.48;;;;;;;;;;5024916;28;20083;-72
2021/12/10 00:44:46;;;;;;;49.05;26.13;;;;;;;;;;5031237;28;20029;-72
2021/12/10 00:47:12;;;;;;;49.88;25.45;;;;;;;;;;5032620;28;20079;-73
2021/12/10 00:49:38;;;;;;;46.53;24.80;;;;;;;;;;5032591;28;20100;-71
2021/12/10 00:52:06;;;;;;;54.95;26.27;;;;;;;;;;5032606;28;20028;-71
2021/12/10 00:54:32;;;;;;;54.75;26.80;;;;;;;;;;5032344;28;20029;-71
2021/12/10 00:56:58;;;;;;;51.47;25.33;;;;;;;;;;5032649;28;20148;-73
2021/12/10 00:59:24;;;;;;;48.85;25.25;;;;;;;;;;5032309;28;20033;-72
2021/12/10 01:01:50;;;;;;;53.00;25.08;;;;;;;;;;5032395;28;20022;-72
2021/12/10 01:04:19;;;;;;;51.10;25.08;;;;;;;;;;5032092;28;20104;-72
2021/12/10 01:06:47;;;;;;;49.67;24.88;;;;;;;;;;5032566;28;20485;-73
2021/12/10 01:09:15;;;;;;;48.60;24.00;;;;;;;;;;5032146;28;20577;-73
2021/12/10 01:11:48;;;;;;;48.53;24.77;;;;;;;;;;5032182;28;20554;-72
2021/12/10 01:14:23;;;;;;;49.38;23.80;;;;;;;;;;5032080;28;20079;-73
2021/12/10 01:25:13;;;;;;;46.33;23.15;;;;;;;;;;5032623;28;20037;-72
2021/12/10 01:27:41;;;;;;;44.17;23.92;;;;;;;;;;5032376;28;20049;-73
2021/12/10 01:30:07;;;;;;;49.05;24.70;;;;;;;;;;5032178;28;20025;-73
2021/12/10 01:32:36;;;;;;;50.85;25.00;;;;;;;;;;5032115;28;20025;-72
2021/12/10 01:35:03;;;;;;;45.92;24.63;;;;;;;;;;5031520;28;20018;-72
2021/12/10 01:37:29;;;;;;;42.20;23.83;;;;;;;;;;5031740;28;20151;-72
2021/12/10 01:39:56;;;;;;;46.80;23.65;;;;;;;;;;5031825;28;20029;-73
2021/12/10 01:44:53;;;;;;;44.40;23.45;;;;;;;;;;5031709;28;20033;-72
2021/12/10 01:47:20;;;;;;;42.45;23.38;;;;;;;;;;5030339;28;20121;-72
2021/12/10 01:49:47;;;;;;;40.88;22.65;;;;;;;;;;5031412;28;20025;-72
2021/12/10 01:52:14;;;;;;;43.42;22.20;;;;;;;;;;5031588;28;20034;-72
2021/12/10 01:54:43;;;;;;;44.78;22.92;;;;;;;;;;5031478;28;20071;-72
2021/12/10 01:57:11;;;;;;;46.08;23.17;;;;;;;;;;5031490;28;20053;-72
2021/12/10 01:59:37;;;;;;;38.38;21.10;;;;;;;;;;5013676;28;20044;-72
2021/12/10 02:02:06;;;;;;;41.95;22.17;;;;;;;;;;5031339;28;20091;-72
2021/12/10 02:04:34;;;;;;;35.22;20.67;;;;;;;;;;5031236;28;20029;-72
2021/12/10 02:07:00;;;;;;;39.80;21.30;;;;;;;;;;5031399;28;20034;-72
2021/12/10 02:09:26;;;;;;;41.53;22.02;;;;;;;;;;5029907;28;20021;-72
2021/12/10 02:11:52;;;;;;;41.45;21.73;;;;;;;;;;5030028;28;20475;-72
2021/12/10 02:14:18;;;;;;;41.42;21.38;;;;;;;;;;5031230;28;20030;-71
2021/12/10 02:16:44;;;;;;;38.03;20.52;;;;;;;;;;5031314;28;20040;-71
2021/12/10 02:19:12;;;;;;;34.63;20.90;;;;;;;;;;5031556;28;20112;-72
2021/12/10 02:21:39;;;;;;;33.85;19.20;;;;;;;;;;5031330;28;20026;-70
2021/12/10 02:24:06;;;;;;;37.83;21.30;;;;;;;;;;5029741;28;20021;-71
2021/12/10 02:26:34;;;;;;;39.38;21.75;;;;;;;;;;5031252;28;20033;-72
2021/12/10 02:29:01;;;;;;;42.65;21.75;;;;;;;;;;5031300;28;20032;-72
2021/12/10 02:31:28;;;;;;;39.72;20.85;;;;;;;;;;5031437;28;20083;-71
2021/12/10 02:33:57;;;;;;;39.58;21.20;;;;;;;;;;5031068;28;20359;-72
2021/12/10 02:36:24;;;;;;;34.75;20.23;;;;;;;;;;5031114;28;20017;-71
2021/12/10 02:38:51;;;;;;;38.75;20.48;;;;;;;;;;5029880;28;20029;-72
2021/12/10 02:41:18;;;;;;;40.72;21.80;;;;;;;;;;5014423;28;20029;-72
2021/12/10 02:43:45;;;;;;;37.47;20.55;;;;;;;;;;5036376;28;20123;-72
2021/12/10 02:46:11;;;;;;;39.03;21.45;;;;;;;;;;5036077;28;20022;-72
2021/12/10 02:48:37;;;;;;;42.60;22.70;;;;;;;;;;5036328;28;20108;-72
2021/12/10 02:51:04;;;;;;;40.08;20.60;;;;;;;;;;5031276;28;20087;-72
2021/12/10 02:53:34;;;;;;;32.80;18.48;;;;;;;;;;5031254;28;20021;-72
2021/12/10 02:56:00;;;;;;;38.30;20.38;;;;;;;;;;5032288;28;20044;-71
2021/12/10 02:58:27;;;;;;;42.00;21.48;;;;;;;;;;5034912;28;20032;-72
2021/12/10 03:00:58;;;;;;;34.95;20.95;;;;;;;;;;5035519;28;20128;-72
2021/12/10 03:03:25;;;;;;;41.60;21.08;;;;;;;;;;5034494;28;20045;-72
2021/12/10 03:05:51;;;;;;;40.47;22.23;;;;;;;;;;5034795;28;20030;-72
2021/12/10 03:08:17;;;;;;;44.05;22.48;;;;;;;;;;5033126;28;20029;-72
2021/12/10 03:10:43;;;;;;;39.67;21.95;;;;;;;;;;5034403;28;20041;-72
2021/12/10 03:13:10;;;;;;;40.35;21.92;;;;;;;;;;5033954;28;20021;-72
2021/12/10 03:15:36;;;;;;;40.45;21.77;;;;;;;;;;5034389;28;20017;-72
2021/12/10 03:18:04;;;;;;;39.75;20.67;;;;;;;;;;5034336;28;20021;-73
2021/12/10 03:20:31;;;;;;;38.45;20.83;;;;;;;;;;5034178;28;20025;-72
2021/12/10 03:22:59;;;;;;;40.72;20.88;;;;;;;;;;5033973;28;20029;-72
2021/12/10 03:25:25;;;;;;;39.63;22.42;;;;;;;;;;5034085;28;20027;-73
2021/12/10 03:27:51;;;;;;;41.78;21.40;;;;;;;;;;5033940;28;20028;-72
2021/12/10 03:30:20;;;;;;;42.42;20.85;;;;;;;;;;5034094;28;20025;-72
2021/12/10 03:32:46;;;;;;;40.97;21.15;;;;;;;;;;5033892;28;20021;-71
2021/12/10 03:35:15;;;;;;;40.53;20.33;;;;;;;;;;5034016;28;20022;-73
2021/12/10 03:37:45;;;;;;;43.40;22.40;;;;;;;;;;5034038;28;20024;-72
2021/12/10 03:40:13;;;;;;;34.30;17.25;;;;;;;;;;5033872;28;20021;-72
2021/12/10 03:42:39;;;;;;;40.58;20.75;;;;;;;;;;5033915;28;20045;-70
2021/12/10 03:45:07;;;;;;;47.10;22.65;;;;;;;;;;5032403;28;20030;-72
2021/12/10 03:47:32;;;;;;;44.42;21.63;;;;;;;;;;5033964;28;20029;-72
2021/12/10 03:49:58;;;;;;;45.70;22.02;;;;;;;;;;5033615;28;20022;-73
2021/12/10 03:52:24;;;;;;;39.28;21.65;;;;;;;;;;5033657;28;20384;-72
2021/12/10 03:54:50;;;;;;;42.03;22.45;;;;;;;;;;5033346;28;20025;-72
2021/12/10 03:57:18;;;;;;;44.17;23.42;;;;;;;;;;5017360;28;20017;-73
2021/12/10 03:59:44;;;;;;;39.30;21.95;;;;;;;;;;5033535;28;20120;-72
2021/12/10 04:02:11;;;;;;;45.42;23.05;;;;;;;;;;5033934;28;20548;-73
2021/12/10 04:04:50;;;;;;;44.85;21.15;;;;;;;;;;5032185;28;20030;-73
2021/12/10 04:07:18;;;;;;;47.80;21.73;;;;;;;;;;5032550;28;20075;-73
2021/12/10 04:09:44;;;;;;;43.10;20.45;;;;;;;;;;5033165;28;20038;-73
2021/12/10 04:12:10;;;;;;;40.20;21.10;;;;;;;;;;5032131;28;20368;-72
2021/12/10 04:14:37;;;;;;;39.97;20.80;;;;;;;;;;5033250;28;20021;-73
2021/12/10 04:17:04;;;;;;;44.55;21.83;;;;;;;;;;5033177;28;20018;-73
2021/12/10 04:19:31;;;;;;;45.70;22.55;;;;;;;;;;5033184;28;20022;-73
2021/12/10 04:21:58;;;;;;;44.70;21.95;;;;;;;;;;5033058;28;20533;-73
2021/12/10 04:24:25;;;;;;;40.70;20.42;;;;;;;;;;5032928;28;20041;-72
2021/12/10 04:26:52;;;;;;;41.55;22.48;;;;;;;;;;5033092;28;20040;-71
2021/12/10 04:29:20;;;;;;;41.90;22.45;;;;;;;;;;5033074;28;20029;-72
2021/12/10 04:31:47;;;;;;;45.08;22.63;;;;;;;;;;5032038;28;20071;-73
2021/12/10 04:34:13;;;;;;;45.08;22.58;;;;;;;;;;5033244;28;20037;-72
2021/12/10 04:36:39;;;;;;;45.72;22.63;;;;;;;;;;5033242;28;20034;-73
2021/12/10 04:39:05;;;;;;;45.55;22.27;;;;;;;;;;5032976;28;20028;-73
2021/12/10 04:41:31;;;;;;;40.47;21.35;;;;;;;;;;5033410;28;20032;-73
2021/12/10 04:43:57;;;;;;;42.00;21.83;;;;;;;;;;5032744;28;20033;-72
2021/12/10 04:46:23;;;;;;;35.83;19.67;;;;;;;;;;5031482;28;20021;-73
2021/12/10 04:48:49;;;;;;;41.40;20.80;;;;;;;;;;5031236;28;20026;-72
2021/12/10 04:51:16;;;;;;;47.70;22.25;;;;;;;;;;5032527;28;20013;-72
2021/12/10 04:53:42;;;;;;;41.00;20.48;;;;;;;;;;5032318;28;20558;-72
2021/12/10 04:56:08;;;;;;;38.33;21.60;;;;;;;;;;5032777;28;20022;-73
2021/12/10 04:58:34;;;;;;;40.92;20.00;;;;;;;;;;5032445;28;20529;-73
2021/12/10 05:01:02;;;;;;;37.17;18.90;;;;;;;;;;5032212;28;20332;-73
2021/12/10 05:03:28;;;;;;;34.72;18.60;;;;;;;;;;5032154;28;20049;-73
2021/12/10 05:06:00;;;;;;;34.38;18.48;;;;;;;;;;5032584;28;20510;-72
2021/12/10 05:08:26;;;;;;;34.83;16.65;;;;;;;;;;5031019;28;20112;-72
2021/12/10 05:10:52;;;;;;;32.08;18.38;;;;;;;;;;5032085;28;20033;-72
2021/12/10 05:13:18;;;;;;;35.97;18.23;;;;;;;;;;5032071;28;20029;-73
2021/12/10 05:15:44;;;;;;;32.55;17.17;;;;;;;;;;5032127;28;20025;-73
2021/12/10 05:18:13;;;;;;;35.92;18.00;;;;;;;;;;5031947;28;20534;-73
2021/12/10 05:20:41;;;;;;;36.92;17.52;;;;;;;;;;5031970;28;20390;-73
2021/12/10 05:23:07;;;;;;;29.27;16.92;;;;;;;;;;5030313;28;20475;-72
2021/12/10 05:25:33;;;;;;;26.35;15.82;;;;;;;;;;5032112;28;20104;-70
2021/12/10 05:27:59;;;;;;;29.33;15.57;;;;;;;;;;5031819;28;20024;-72
2021/12/10 05:30:28;;;;;;;34.50;16.95;;;;;;;;;;5031832;28;20064;-72
2021/12/10 05:32:54;;;;;;;33.63;16.45;;;;;;;;;;5031589;28;20530;-71
2021/12/10 05:35:20;;;;;;;30.20;16.42;;;;;;;;;;5031590;28;20021;-72
2021/12/10 05:37:46;;;;;;;29.38;15.95;;;;;;;;;;5031308;28;20030;-72
2021/12/10 05:40:14;;;;;;;26.60;13.88;;;;;;;;;;5020416;28;20025;-73
2021/12/10 05:42:41;;;;;;;30.20;15.43;;;;;;;;;;5026680;28;20475;-73
2021/12/10 05:45:07;;;;;;;30.40;13.80;;;;;;;;;;5030131;28;20060;-73
2021/12/10 05:47:34;;;;;;;29.92;14.65;;;;;;;;;;5030274;28;20018;-70
2021/12/10 05:50:00;;;;;;;33.42;15.77;;;;;;;;;;5031417;28;20404;-73
2021/12/10 05:52:26;;;;;;;37.90;15.65;;;;;;;;;;5031648;28;20022;-73
2021/12/10 05:54:52;;;;;;;31.75;16.67;;;;;;;;;;5031219;28;20464;-74
2021/12/10 05:57:18;;;;;;;31.20;15.80;;;;;;;;;;5031552;28;20436;-73
2021/12/10 05:59:45;;;;;;;36.22;16.38;;;;;;;;;;5031385;28;20124;-73
2021/12/10 06:02:11;;;;;;;36.78;18.90;;;;;;;;;;5031471;28;20059;-73
2021/12/10 06:04:37;;;;;;;38.00;19.35;;;;;;;;;;5031332;28;20039;-70
2021/12/10 06:07:04;;;;;;;30.05;16.65;;;;;;;;;;5031377;28;20070;-73
2021/12/10 06:09:30;;;;;;;30.65;16.77;;;;;;;;;;5030882;28;20026;-73
2021/12/10 06:11:57;;;;;;;35.85;17.75;;;;;;;;;;5031117;28;20070;-71
2021/12/10 06:14:23;;;;;;;37.42;18.83;;;;;;;;;;5030869;28;20022;-73
2021/12/10 06:16:52;;;;;;;35.00;18.13;;;;;;;;;;5031196;28;20453;-72
2021/12/10 06:19:18;;;;;;;31.58;17.02;;;;;;;;;;5015109;28;20032;-73
2021/12/10 06:21:44;;;;;;;35.15;17.33;;;;;;;;;;5029502;28;20029;-72
2021/12/10 06:24:11;;;;;;;40.30;18.55;;;;;;;;;;5029623;28;20040;-72
2021/12/10 06:26:37;;;;;;;32.05;16.70;;;;;;;;;;5030856;28;20083;-68
2021/12/10 06:29:04;;;;;;;34.92;17.48;;;;;;;;;;5029256;28;20429;-72
2021/12/10 06:31:30;;;;;;;35.92;16.20;;;1.10;92.20;;;;;;5031212;28;20053;-69
2021/12/10 06:33:57;;;;;;;34.92;17.98;;;1.20;92.40;;;;;;5034566;28;20089;-73
2021/12/10 06:36:24;;;;;;;35.45;17.55;;;1.10;92.40;;;;;;5035019;28;20021;-72
2021/12/10 06:38:50;;;;;;;30.45;16.27;;;1.20;92.50;;;;;;5033279;28;20076;-71
2021/12/10 06:41:16;;;;;;;36.58;19.23;;;1.10;92.30;;;;;;5018247;28;20072;-70
2021/12/10 06:43:42;;;;;;;33.72;18.73;;;1.10;92.30;;;;;;5033399;28;20219;-73
2021/12/10 06:46:08;;;;;;;35.03;19.80;;;1.10;92.30;;;;;;5034975;28;20562;-71
2021/12/10 06:48:34;;;;;;;35.40;19.38;;;1.00;92.30;;;;;;5034631;28;20022;-73
2021/12/10 06:51:09;;;;;;;40.90;21.30;;;1.00;92.40;;;;;;5034497;28;20029;-73
2021/12/10 06:53:36;;;;;;;41.63;19.33;;;1.00;92.40;;;;;;5034562;28;20025;-73
2021/12/10 06:56:04;;;;;;;39.13;20.50;;;;;;;;;;5034555;28;20390;-73
2021/12/10 06:58:32;;;;;;;35.58;19.63;;;;;;;;;;5034750;28;20480;-73
2021/12/10 07:01:07;;;;;;;36.45;19.80;;;;;;;;;;5034514;28;20056;-71
2021/12/10 07:03:33;;;;;;;40.90;21.52;;;;;;;;;;5034572;28;20029;-74
2021/12/10 07:06:00;;;;;;;40.25;20.02;;;;;;;;;;5034638;28;20049;-73
2021/12/10 07:08:26;;;;;;;34.03;19.13;;;;;;;;;;5034190;28;20033;-73
2021/12/10 07:10:53;;;;;;;43.58;21.33;;;;;;;;;;5034267;28;20033;-73
2021/12/10 07:13:19;;;;;;;38.17;19.58;;;;;;;;;;5033888;28;20409;-72
2021/12/10 07:15:46;;;;;;;35.95;20.15;;;;;;;;;;5033892;28;20494;-72
2021/12/10 07:18:12;;;;;;;36.55;18.80;;;;;;;;;;5032782;28;20191;-73
2021/12/10 07:20:39;;;;;;;44.05;20.67;;;;;;;;;;5033970;28;20026;-71
2021/12/10 07:23:05;;;;;;;42.28;21.33;;;;;;;;;;5033969;28;20022;-72
2021/12/10 07:25:31;;;;;;;44.47;21.50;;;;;;;;;;5034216;28;20368;-73
2021/12/10 07:27:57;;;;;;;45.08;20.92;;;;;;;;;;5033900;28;20024;-72
2021/12/10 07:30:24;;;;;;;37.83;20.13;;;;;;;;;;5033676;28;20041;-72
2021/12/10 07:32:51;;;;;;;37.92;19.98;;;;;;;;;;5033742;28;20076;-72
2021/12/10 07:35:17;;;;;;;32.40;18.83;;;;;;;;;;5017702;28;20388;-72
2021/12/10 07:37:43;;;;;;;32.67;18.58;;;;;;;;;;5033553;28;20131;-73
2021/12/10 07:40:11;;;;;;;35.05;19.60;;;;;;;;;;5022791;28;20026;-74
2021/12/10 07:42:37;;;;;;;32.60;18.02;;;;;;;;;;5028255;28;20109;-74
2021/12/10 07:45:05;;;;;;;35.80;19.75;;;;;;;;;;5033617;28;20045;-73
2021/12/10 07:47:35;;;;;;;35.33;18.17;;;;;;;;;;5033999;28;20376;-73
2021/12/10 07:50:01;;;;;;;41.03;20.70;;;;;;;;;;5033652;28;20163;-71
2021/12/10 07:52:33;;;;;;;42.65;20.77;;;;;;;;;;5033599;28;20059;-73
2021/12/10 07:54:59;;;;;;;40.50;21.15;;;;;;;;;;5033185;28;20021;-70
2021/12/10 07:57:26;;;;;;;36.60;19.25;;;;;;;;;;5033107;28;20033;-70
2021/12/10 07:59:52;;;;;;;41.25;21.30;;;;;;;;;;5031781;28;20160;-71
2021/12/10 08:02:19;;;;;;;32.53;18.70;;;;;;;;;;5033277;28;20546;-71
2021/12/10 08:04:45;;;;;;;35.33;19.08;;;;;;;;;;5031619;28;20463;-69
2021/12/10 08:07:13;;;;;;;39.35;20.92;;;;;;;;;;5033110;28;20033;-71
2021/12/10 08:09:39;;;;;;;47.42;24.20;;;;;;;;;;5033073;28;20466;-71
2021/12/10 08:12:05;;;;;;;51.17;22.20;;;;;;;;;;5033176;28;20026;-70
2021/12/10 08:14:31;;;;;;;41.00;21.33;;;;;;;;;;5033135;28;20053;-69
2021/12/10 08:16:57;;;;;;;64.47;29.95;;;;;;;;;;5033307;28;20514;-70
2021/12/10 08:19:23;;;;;;;154.15;61.78;;;;;;;;;;5033046;28;20418;-71
2021/12/10 08:21:49;;;;;;;38.40;21.25;;;;;;;;;;5033335;28;20416;-71
2021/12/10 08:24:14;;;;;;;36.85;19.52;;;;;;;;;;5032749;28;20041;-71
2021/12/10 08:26:41;;;;;;;38.10;20.08;;;;;;;;;;5031500;28;20032;-71
2021/12/10 08:29:08;;;;;;;120.25;48.75;;;;;;;;;;5032581;28;20353;-70
2021/12/10 08:31:34;;;;;;;44.30;21.83;;;;;;;;;;5031740;28;20463;-70
2021/12/10 08:34:00;;;;;;;52.08;25.80;;;;;;;;;;5032775;28;20471;-69
2021/12/10 08:36:28;;;;;;;53.45;25.35;;;;;;;;;;5032855;28;20021;-70
2021/12/10 08:38:54;;;;;;;54.35;25.67;;;;;;;;;;5032561;28;20029;-70
2021/12/10 08:41:22;;;;;;;51.40;25.58;;;;;;;;;;5033209;28;20163;-73
2021/12/10 08:43:49;;;;;;;49.25;25.20;;;;;;;;;;5031244;28;20032;-75
2021/12/10 08:46:15;;;;;;;47.70;23.90;;;;;;;;;;5032826;28;20053;-75
2021/12/10 08:48:42;;;;;;;50.08;24.33;;;;;;;;;;5032368;28;20069;-75
2021/12/10 08:51:11;;;;;;;43.30;23.02;;;;;;;;;;5032644;28;20472;-75
2021/12/10 08:53:37;;;;;;;46.65;24.02;;;;;;;;;;5031659;28;20075;-74
2021/12/10 08:56:03;;;;;;;50.45;22.90;;;;;;;;;;5031157;28;20470;-75
2021/12/10 08:58:29;;;;;;;44.58;23.90;;;;;;;;;;5030857;28;20521;-75
2021/12/10 09:00:57;;;;;;;50.15;24.23;;;;;;;;;;5045289;23;20419;-66
2021/12/10 09:03:23;;;;;;;45.30;23.17;;;;;;;;;;5030429;28;20053;-68
2021/12/10 09:05:49;;;;;;;50.63;23.85;;;;;;;;;;5031624;28;20071;-69
2021/12/10 09:08:15;;;;;;;46.08;25.02;;;;;;;;;;5030609;28;20083;-69
2021/12/10 09:10:42;;;;;;;55.50;26.30;;;;;;;;;;5030897;28;20017;-68
2021/12/10 09:13:14;;;;;;;55.75;25.55;;;;;;;;;;5029236;28;20029;-69
2021/12/10 09:15:41;;;;;;;54.22;25.98;;;;;;;;;;5031183;28;20028;-69
2021/12/10 09:18:08;;;;;;;51.53;25.23;;;;;;;;;;5030963;28;20036;-68
2021/12/10 09:20:38;;;;;;;51.17;25.25;;;;;;;;;;5030991;28;20169;-69
2021/12/10 09:23:05;;;;;;;46.65;24.98;;;;;;;;;;5030784;28;20022;-69
2021/12/10 09:25:31;;;;;;;49.60;24.85;;;;;;;;;;5030598;28;20399;-65
2021/12/10 09:27:57;;;;;;;64.60;30.42;;;;;;;;;;5030509;28;20045;-66
2021/12/10 09:30:24;;;;;;;57.30;27.42;;;;;;;;;;5030378;28;20117;-66
2021/12/10 09:32:50;;;;;;;52.38;25.65;;;;;;;;;;5030600;28;20018;-66
2021/12/10 09:35:17;;;;;;;58.83;28.77;;;;;;;;;;5014593;28;20084;-67
2021/12/10 09:37:43;;;;;;;63.30;29.60;;;;;;;;;;5030693;28;20025;-67
2021/12/10 09:40:13;;;;;;;56.13;27.58;;;;;;;;;;5019615;28;20065;-66
2021/12/10 09:42:40;;;;;;;52.92;25.80;;;;;;;;;;5025557;28;20021;-66
2021/12/10 09:45:07;;;;;;;57.50;28.50;;;;;;;;;;5030365;28;20022;-67
2021/12/10 09:47:34;;;;;;;52.78;26.95;;;;;;;;;;5030483;28;20030;-68
2021/12/10 09:50:00;;;;;;;59.33;28.90;;;;;;;;;;5030233;28;20029;-67
2021/12/10 09:52:27;;;;;;;52.38;26.75;;;;;;;;;;5030289;28;20204;-66
2021/12/10 09:54:53;;;;;;;53.88;25.40;;;;;;;;;;5030184;28;20471;-67
2021/12/10 09:57:22;;;;;;;57.78;27.60;;;;;;;;;;5030747;28;20024;-67
2021/12/10 09:59:51;;;;;;;49.17;25.98;;;;;;;;;;5029955;28;20517;-66
2021/12/10 10:02:18;;;;;;;63.67;30.23;;;;;;;;;;5030558;28;20068;-66
2021/12/10 10:04:49;;;;;;;66.43;29.80;;;;;;;;;;5028660;28;20052;-67
2021/12/10 10:07:15;;;;;;;54.25;26.70;;;;;;;;;;5029579;28;20021;-66
2021/12/10 10:09:43;;;;;;;53.80;27.75;;;;;;;;;;5030250;28;20037;-67
2021/12/10 10:12:12;;;;;;;67.38;28.90;;;;;;;;;;5030184;28;20487;-67
2021/12/10 10:14:39;;;;;;;56.75;27.77;;;;;;;;;;5028679;28;20029;-67
2021/12/10 10:17:07;;;;;;;56.38;27.55;;;;;;;;;;5028837;28;20040;-67
2021/12/10 10:19:34;;;;;;;50.17;26.23;;;;;;;;;;5030296;28;20029;-67
2021/12/10 10:22:01;;;;;;;51.97;26.55;;;;;;;;;;5030796;28;20029;-66
2021/12/10 10:24:29;;;;;;;61.00;29.42;;;;;;;;;;5028491;28;20029;-66
2021/12/10 10:26:59;;;;;;;54.33;27.88;;;;;;;;;;5029802;28;20093;-67
2021/12/10 10:29:27;;;;;;;53.70;27.15;;;;;;;;;;5028857;28;20177;-69
2021/12/10 10:32:07;;;;;;;52.63;30.08;;;;;;;;;;5030157;28;20547;-66
2021/12/10 10:34:33;;;;;;;55.20;27.50;;;;;;;;;;5029747;28;20034;-66
2021/12/10 10:36:59;;;;;;;66.07;32.28;;;;;;;;;;5030198;28;20037;-66
2021/12/10 10:39:32;;;;;;;54.50;28.70;;;;;;;;;;5030068;28;20030;-68
2021/12/10 10:41:58;;;;;;;64.60;29.42;;;;;;;;;;5029185;28;20049;-67
2021/12/10 10:44:24;;;;;;;56.28;27.77;;;;;;;;;;5030130;28;20522;-67
2021/12/10 10:46:52;;;;;;;61.45;28.60;;;;;;;;;;5030217;28;20029;-66
2021/12/10 10:49:31;;;;;;;55.10;26.63;;;;;;;;;;5013978;28;20026;-67
2021/12/10 10:51:57;;;;;;;50.58;25.70;;;;;;;;;;5029701;28;20029;-65
2021/12/10 10:54:30;;;;;;;44.13;24.60;;;;;;;;;;5029755;28;20025;-66
2021/12/10 10:56:56;;;;;;;52.03;26.20;;;;;;;;;;5028369;28;20018;-67
2021/12/10 10:59:25;;;;;;;51.78;26.20;;;;;;;;;;5028121;28;20047;-67
2021/12/10 11:02:02;;;;;;;53.38;25.38;;;;;;;;;;5030072;28;20029;-67
2021/12/10 11:04:28;;;;;;;46.70;24.73;;;;;;;;;;5029754;28;20029;-67
2021/12/10 11:06:56;;;;;;;51.15;24.88;;;;;;;;;;5029939;28;20075;-67
2021/12/10 11:09:24;;;;;;;44.85;24.50;;;;;;;;;;5029708;28;21868;-67
2021/12/10 11:11:53;;;;;;;48.53;24.15;;;;;;;;;;5028534;28;20049;-67
2021/12/10 11:14:25;;;;;;;46.83;24.30;;;;;;;;;;5029493;28;20036;-69
2021/12/10 11:16:53;;;;;;;44.83;24.88;;;;;;;;;;5030412;28;20109;-69
2021/12/10 11:19:21;;;;;;;47.53;24.10;;;;;;;;;;5033448;28;20025;-66
2021/12/10 11:21:49;;;;;;;49.00;24.77;;;;;;;;;;5034506;28;20030;-67
2021/12/10 11:24:45;;;;;;;44.30;23.55;;;;;;;;;;5033663;28;20031;-67
2021/12/10 11:27:13;;;;;;;49.08;25.67;;;;;;;;;;5034144;28;20025;-67
2021/12/10 11:29:47;;;;;;;37.42;20.60;;;;;;;;;;5033802;28;20498;-67
2021/12/10 11:32:13;;;;;;;35.90;19.20;;;;;;;;;;5034243;28;20542;-69
2021/12/10 11:34:40;;;;;;;50.95;25.00;;;;;;;;;;5033766;28;20029;-69
2021/12/10 11:37:06;;;;;;;32.05;16.63;;;;;;;;;;5033354;28;20021;-70
2021/12/10 11:39:52;;;;;;;29.45;15.63;;;;;;;;;;5028019;28;20530;-68
2021/12/10 11:42:54;;;;;;;27.73;16.42;;;;;;;;;;5026111;28;20029;-70
2021/12/10 11:45:31;;;;;;;38.63;19.60;;;;;;;;;;5004378;28;20307;-71
2021/12/10 11:48:06;;;;;;;30.23;16.70;;;;;;;;;;5033131;28;20033;-68
2021/12/10 11:50:33;;;;;;;28.13;16.38;;;;;;;;;;5032599;28;20028;-68
2021/12/10 11:53:04;;;;;;;26.50;15.75;;;;;;;;;;5032408;28;20057;-68
2021/12/10 11:55:32;;;;;;;24.88;14.75;;;;;;;;;;5032486;28;20026;-68
2021/12/10 11:57:57;;;;;;;26.83;14.48;;;;;;;;;;5032451;28;20078;-68
2021/12/10 12:00:26;;;;;;;28.92;15.95;;;;;;;;;;5031865;28;20084;-68
2021/12/10 12:02:55;;;;;;;25.35;14.35;;;;;;;;;;5032468;28;20037;-69
2021/12/10 12:05:23;;;;;;;28.60;15.48;;;;;;;;;;5031032;28;20490;-68
2021/12/10 12:07:53;;;;;;;31.38;15.32;;;;;;;;;;5032423;28;20036;-69
2021/12/10 12:10:32;;;;;;;29.73;16.55;;;;;;;;;;5032332;28;20079;-69
2021/12/10 12:13:21;;;;;;;26.75;14.98;;;;;;;;;;5031649;28;20120;-68
2021/12/10 12:15:49;;;;;;;25.27;14.98;;;;;;;;;;5032315;28;20017;-69
2021/12/10 12:18:27;;;;;;;25.60;15.75;;;;;;;;;;5031905;28;20021;-68
2021/12/10 12:26:48;;;;;;;29.45;15.30;;;;;;;;;;5026705;28;20045;-70
2021/12/10 12:29:14;;;;;;;29.05;16.85;;;;;;;;;;5029485;28;20025;-68
2021/12/10 12:31:48;;;;;;;25.85;14.77;;;;;;;;;;5030558;28;20021;-69
2021/12/10 12:34:16;;;;;;;25.83;15.15;;;;;;;;;;5031490;28;20049;-68
2021/12/10 12:36:54;;;;;;;25.73;15.05;;;;;;;;;;5031948;28;20534;-68
2021/12/10 12:39:32;;;;;;;24.40;13.95;;;;;;;;;;5025951;28;20037;-68
2021/12/10 12:41:59;;;;;;;26.50;14.32;;;;;;;;;;5031881;28;20025;-68
2021/12/10 12:44:35;;;;;;;32.50;15.15;;;;;;;;;;5030448;28;20033;-67
2021/12/10 12:47:07;;;;;;;23.05;13.50;;;;;;;;;;5031475;28;20026;-69
2021/12/10 12:49:59;;;;;;;30.67;15.82;;;;;;;;;;5031245;28;20032;-69
2021/12/10 12:52:25;;;;;;;29.88;15.85;;;;;;;;;;5028063;28;20056;-69
2021/12/10 12:55:05;;;;;;;25.38;14.75;;;;;;;;;;5030852;28;20571;-68
2021/12/10 12:57:37;;;;;;;26.15;13.88;;;;;;;;;;5031107;28;20017;-68
2021/12/10 13:00:05;;;;;;;30.40;16.70;;;;;;;;;;5027110;28;20033;-69
2021/12/10 13:02:31;;;;;;;34.25;16.35;;;;;;;;;;5025310;28;20445;-69
2021/12/10 13:04:57;;;;;;;25.10;14.13;;;;;;;;;;5031120;28;20442;-68
2021/12/10 13:07:24;;;;;;;26.85;13.77;;;;;;;;;;5031171;28;20029;-70
2021/12/10 13:09:57;;;;;;;31.33;16.33;;;;;;;;;;5030921;28;20483;-69
2021/12/10 13:12:43;;;;;;;26.67;15.30;;;;;;;;;;5031303;28;20033;-69
2021/12/10 13:15:20;;;;;;;29.08;15.70;;;;;;;;;;5031306;28;20372;-68
2021/12/10 13:17:48;;;;;;;31.42;16.88;;;;;;;;;;5031091;28;20029;-68
2021/12/10 13:20:19;;;;;;;37.35;19.85;;;;;;;;;;5030974;28;20103;-69
2021/12/10 13:22:45;;;;;;;;;;;;;;;;;;5031622;28;20076;-68
2021/12/10 13:25:16;;;;;;;28.55;15.93;;;;;;;;;;5031103;28;19917;-68
2021/12/10 13:27:42;;;;;;;31.23;17.15;;;;;;;;;;5030606;28;20064;-69
2021/12/10 13:30:10;;;;;;;25.20;14.35;;;;;;;;;;5030826;28;20033;-69
2021/12/10 13:32:36;;;;;;;28.95;15.45;;;;;;;;;;5030897;28;20026;-69
2021/12/10 13:35:02;;;;;;;29.73;15.25;;;;;;;;;;5030556;28;20026;-69
2021/12/10 13:37:28;;;;;;;34.53;18.83;;;;;;;;;;5030924;28;20027;-69
2021/12/10 13:39:57;;;;;;;34.38;18.60;;;;;;;;;;5022852;28;20108;-69
2021/12/10 13:42:24;;;;;;;36.13;19.15;;;;;;;;;;5029263;28;20022;-69
2021/12/10 13:44:52;;;;;;;36.50;20.33;;;;;;;;;;5014747;28;20026;-69
2021/12/10 13:47:25;;;;;;;31.90;17.45;;;;;;;;;;5029565;28;20032;-69
2021/12/10 13:49:54;;;;;;;43.25;22.40;;;;;;;;;;5030827;28;20071;-69
2021/12/10 13:53:00;;;;;;;34.30;19.35;;;;;;;;;;5030484;28;20033;-68
2021/12/10 13:55:26;;;;;;;38.22;19.83;;;;;;;;;;4975745;28;20472;-69
2021/12/10 13:58:08;;;;;;;38.00;19.90;;;;;;;;;;4981147;28;20048;-68
2021/12/10 14:00:35;;;;;;;41.28;21.10;;;;;;;;;;5010864;28;20049;-70
2021/12/10 14:03:01;;;;;;;37.25;21.05;;;;;;;;;;5031210;28;20467;-69
2021/12/10 14:05:29;;;;;;;37.47;20.88;;;;;;;;;;5031749;28;20033;-68
2021/12/10 14:08:04;;;;;;;53.22;25.92;;;;;;;;;;5031712;28;20017;-69
2021/12/10 14:10:35;;;;;;;40.55;21.83;;;;;;;;;;5031431;28;20025;-69
2021/12/10 14:13:01;;;;;;;;;;;;;;;;;;5030263;28;20029;-71
2021/12/10 14:15:41;;;;;;;43.55;22.38;;;;;;;;;;5016530;28;19912;-68
2021/12/10 14:18:15;;;;;;;62.75;28.75;;;;;;;;;;5030667;28;20041;-71
2021/12/10 14:20:46;;;;;;;68.90;32.97;;;;;;;;;;5031205;28;20127;-70
2021/12/10 14:23:14;;;;;;;57.80;27.77;;;;;;;;;;5031318;28;20076;-69
2021/12/10 14:25:50;;;;;;;55.65;25.80;;;;;;;;;;5029619;28;20029;-70
2021/12/10 14:28:17;;;;;;;42.13;22.10;;;;;;;;;;5031234;28;20549;-69
2021/12/10 14:30:52;;;;;;;47.97;23.85;;;;;;;;;;5030604;28;20029;-68
2021/12/10 14:33:18;;;;;;;42.85;22.65;;;;;;;;;;5014790;28;20362;-69
2021/12/10 14:35:46;;;;;;;46.15;24.95;;;;;;;;;;5030856;28;20044;-70
2021/12/10 14:38:13;;;;;;;50.55;25.08;;;;;;;;;;5030935;28;20029;-69